Chris — V7XF8 — position and weather

sailwx.info

Track history (hours):
 
Tides and Currents Weather Stations Pressure Air Temp Water Temp Dewpoint Dewpoint Depression Visibility Wind Speed Wind Dir Waves Ship Positions

Chris

Last reported at 2015-Mar-29 10:30 UTC. Time now 2015-Mar-30 10:41 UTC.
Position N 48°31' W 126°30'.

Length 218 m; draft 13.5 m.

Type: Ship. MMSI: 538004472.

Date/timePositionNaut miles runAvg speedWind from/ knotsBaromVisibWave heightAir tempDewpointWater temp
2015-Mar-29 10:30N 48°31' W 126°30'7 7.3
2015-Mar-29 09:33N 48°31' W 126°20'9 8.2
2015-Mar-29 08:31N 48°31' W 126°07'9 9.0
2015-Mar-29 07:34N 48°31' W 125°54'9 9.3
2015-Mar-29 06:33N 48°31' W 125°40'10 9.8
2015-Mar-29 05:33N 48°31' W 125°25'1010.2
2015-Mar-29 04:32N 48°31' W 125°09'10 9.8
2015-Mar-29 03:32N 48°31' W 124°55'9 9.7
2015-Mar-29 02:33N 48°30' W 124°40'1110.6
2015-Mar-29 01:33N 48°26' W 124°26'1111.2
2015-Mar-29 00:33N 48°21' W 124°10'1211.7
2015-Mar-28 23:33N 48°17' W 123°54'1212.0
2015-Mar-28 22:33N 48°15' W 123°36'1110.9
2015-Mar-28 21:33N 48°09' W 123°23'10 9.8
2015-Mar-28 20:33N 48°12' W 123°09'1110.7
2015-Mar-28 19:32N 48°12' W 122°52'1111.0
2015-Mar-28 18:33N 48°06' W 122°39'1111.1
2015-Mar-28 17:33N 47°56' W 122°31'1111.2
2015-Mar-28 16:33N 47°46' W 122°26'8 8.5
2015-Mar-28 15:33N 47°37' W 122°23'0 0.2
2015-Mar-28 14:29N 47°37' W 122°22'0 0.0
2015-Mar-28 13:29N 47°37' W 122°22'0 0.0
2015-Mar-28 12:29N 47°37' W 122°22'0 0.0
2015-Mar-28 11:29N 47°37' W 122°22'0 0.0
2015-Mar-28 10:29N 47°37' W 122°22'0 0.0
2015-Mar-28 09:29N 47°37' W 122°22'0 0.0
2015-Mar-28 08:32N 47°37' W 122°22'0 0.0
2015-Mar-28 07:32N 47°37' W 122°22'0 0.0
2015-Mar-28 06:23N 47°37' W 122°22'0 0.0
2015-Mar-28 05:32N 47°37' W 122°22'0 0.0
2015-Mar-28 04:20N 47°37' W 122°22'0 0.0
2015-Mar-28 03:32N 47°37' W 122°22'0 0.0
2015-Mar-28 02:32N 47°37' W 122°22'0 0.0
2015-Mar-28 01:29N 47°37' W 122°22'0 0.0
2015-Mar-28 00:29N 47°37' W 122°22'0 0.0
2015-Mar-27 23:29N 47°37' W 122°22'0 0.0
2015-Mar-27 22:26N 47°37' W 122°22'0 0.0
2015-Mar-27 21:32N 47°37' W 122°22'0 0.0
2015-Mar-27 20:32N 47°37' W 122°22'0 0.0
2015-Mar-27 19:32N 47°37' W 122°22'0 0.0
2015-Mar-27 18:32N 47°37' W 122°22'0 0.0
2015-Mar-27 17:29N 47°37' W 122°22'0 0.0
2015-Mar-27 16:29N 47°37' W 122°22'0 0.0
2015-Mar-27 15:29N 47°37' W 122°22'0 0.0
2015-Mar-27 14:33N 47°37' W 122°22'0 0.4
2015-Mar-27 13:33N 47°37' W 122°22'1 0.6
2015-Mar-27 12:33N 47°37' W 122°23'0 0.1
2015-Mar-27 11:33N 47°37' W 122°23'0 0.1
2015-Mar-27 10:33N 47°37' W 122°23'0 0.0
2015-Mar-27 09:33N 47°37' W 122°23'0 0.0
2015-Mar-27 08:33N 47°37' W 122°23'0 0.1
2015-Mar-27 07:24N 47°37' W 122°23'0 0.1
2015-Mar-27 06:21N 47°37' W 122°23'0 0.0
2015-Mar-27 05:30N 47°37' W 122°23'0 0.0
2015-Mar-27 04:33N 47°37' W 122°23'0 0.0
2015-Mar-27 03:33N 47°37' W 122°23'0 0.0
2015-Mar-27 02:33N 47°37' W 122°23'0 0.2
2015-Mar-27 01:33N 47°37' W 122°23'0 0.1
2015-Mar-27 00:33N 47°37' W 122°23'0 0.2
2015-Mar-26 23:30N 47°37' W 122°23'0 0.1
2015-Mar-26 22:33N 47°37' W 122°23'0 0.0
2015-Mar-26 21:33N 47°37' W 122°23'0 0.1
2015-Mar-26 20:33N 47°37' W 122°23'0 0.0
2015-Mar-26 19:33N 47°37' W 122°23'0 0.0
2015-Mar-26 18:21N 47°37' W 122°23'0 0.0
2015-Mar-26 17:30N 47°37' W 122°23'0 0.0
2015-Mar-26 16:33N 47°37' W 122°23'0 0.0
2015-Mar-26 15:33N 47°37' W 122°23'0 0.0
2015-Mar-26 14:33N 47°37' W 122°23'0 0.1
2015-Mar-26 13:33N 47°37' W 122°23'0 0.0
2015-Mar-26 12:33N 47°37' W 122°23'0 0.0
2015-Mar-26 11:30N 47°37' W 122°23'0 0.0
2015-Mar-26 10:33N 47°37' W 122°23'0 0.0
2015-Mar-26 09:33N 47°37' W 122°23'0 0.0
2015-Mar-26 08:33N 47°37' W 122°23'0 0.0
2015-Mar-26 07:30N 47°37' W 122°23'0 0.0
2015-Mar-26 06:33N 47°37' W 122°23'0 0.0
2015-Mar-26 05:33N 47°37' W 122°23'0 0.0
2015-Mar-26 04:30N 47°37' W 122°23'0 0.0
2015-Mar-26 03:33N 47°37' W 122°23'0 0.0
2015-Mar-26 02:30N 47°37' W 122°23'0 0.0
2015-Mar-26 01:30N 47°37' W 122°23'0 0.0
2015-Mar-26 00:27N 47°37' W 122°23'0 0.0
2015-Mar-25 23:33N 47°37' W 122°23'0 0.0
2015-Mar-25 22:30N 47°37' W 122°23'0 0.0
2015-Mar-25 21:30N 47°37' W 122°23'0 0.0
2015-Mar-25 20:33N 47°37' W 122°23'0 0.0
2015-Mar-25 19:33N 47°37' W 122°23'0 0.0
2015-Mar-25 18:33N 47°37' W 122°23'0 0.1
2015-Mar-25 17:33N 47°37' W 122°23'0 0.0
2015-Mar-25 16:33N 47°37' W 122°23'0 0.0
2015-Mar-25 15:33N 47°37' W 122°23'0 0.0
2015-Mar-25 14:24N 47°37' W 122°23'0 0.1
2015-Mar-25 13:33N 47°37' W 122°23'0 0.0
2015-Mar-25 12:33N 47°37' W 122°23'0 0.0
2015-Mar-25 11:30N 47°37' W 122°23'0 0.1
2015-Mar-25 10:33N 47°37' W 122°23'0 0.1
2015-Mar-25 09:33N 47°37' W 122°23'0 0.0
2015-Mar-25 08:33N 47°37' W 122°23'0 0.0
2015-Mar-25 07:30N 47°37' W 122°23'0 0.0
2015-Mar-25 06:33N 47°37' W 122°23'0 0.0
2015-Mar-25 05:33N 47°37' W 122°23'0 0.1
2015-Mar-25 04:33N 47°37' W 122°23'0 0.0
2015-Mar-25 03:33N 47°37' W 122°23'0 0.0
2015-Mar-25 02:33N 47°37' W 122°23'0 0.0
2015-Mar-25 01:33N 47°37' W 122°23'0 0.2
2015-Mar-25 00:33N 47°37' W 122°23'0 0.2
2015-Mar-24 23:33N 47°37' W 122°23'0 0.2
2015-Mar-24 22:33N 47°37' W 122°23'0 0.1
2015-Mar-24 21:33N 47°37' W 122°23'0 0.1
2015-Mar-24 20:27N 47°37' W 122°23'0 0.1
2015-Mar-24 19:33N 47°37' W 122°23'0 0.0
2015-Mar-24 18:33N 47°37' W 122°23'0 0.0
2015-Mar-24 17:33N 47°37' W 122°23'0 0.0
2015-Mar-24 16:33N 47°37' W 122°23'0 0.0
2015-Mar-24 15:30N 47°37' W 122°23'0 0.1
2015-Mar-24 14:33N 47°37' W 122°23'0 0.1
2015-Mar-24 13:33N 47°37' W 122°23'0 0.0
2015-Mar-24 12:33N 47°37' W 122°23'0 0.0
2015-Mar-24 11:27N 47°37' W 122°23'0 0.1
2015-Mar-24 10:33N 47°37' W 122°23'0 0.0
2015-Mar-24 09:30N 47°37' W 122°23'0 0.1
2015-Mar-24 08:33N 47°37' W 122°23'0 0.0
2015-Mar-24 07:33N 47°37' W 122°23'0 0.0
2015-Mar-24 06:33N 47°37' W 122°23'0 0.0
2015-Mar-24 05:33N 47°37' W 122°23'0 0.0
2015-Mar-24 04:33N 47°37' W 122°23'0 0.1
2015-Mar-24 03:33N 47°37' W 122°23'0 0.0
2015-Mar-24 02:30N 47°37' W 122°23'0 0.3
2015-Mar-24 01:33N 47°37' W 122°23'1 0.5
2015-Mar-24 00:29N 47°37' W 122°22'0 0.0
2015-Mar-23 23:32N 47°37' W 122°22'0 0.0
2015-Mar-23 22:29N 47°37' W 122°22'0 0.0
2015-Mar-23 21:32N 47°37' W 122°22'0 0.0
2015-Mar-23 20:32N 47°37' W 122°22'0 0.0
2015-Mar-23 19:32N 47°37' W 122°22'0 0.0
2015-Mar-23 18:32N 47°37' W 122°22'0 0.0
2015-Mar-23 17:32N 47°37' W 122°22'0 0.0
2015-Mar-23 16:32N 47°37' W 122°22'0 0.0
2015-Mar-23 15:32N 47°37' W 122°22'0 0.0
2015-Mar-23 14:32N 47°37' W 122°22'0 0.0
2015-Mar-23 13:32N 47°37' W 122°22'0 0.0
2015-Mar-23 12:32N 47°37' W 122°22'0 0.0
2015-Mar-23 11:32N 47°37' W 122°22'0 0.0
2015-Mar-23 10:32N 47°37' W 122°22'0 0.0
2015-Mar-23 09:32N 47°37' W 122°22'0 0.0
2015-Mar-23 08:32N 47°37' W 122°22'0 0.0
2015-Mar-23 07:32N 47°37' W 122°22'0 0.0
2015-Mar-23 06:32N 47°37' W 122°22'0 0.0
2015-Mar-23 05:32N 47°37' W 122°22'0 0.0
2015-Mar-23 04:32N 47°37' W 122°22'0 0.0
2015-Mar-23 03:32N 47°37' W 122°22'0 0.0
2015-Mar-23 02:32N 47°37' W 122°22'0 0.0
2015-Mar-23 01:32N 47°37' W 122°22'0 0.0
2015-Mar-23 00:32N 47°37' W 122°22'0 0.0
2015-Mar-22 23:29N 47°37' W 122°22'0 0.0
2015-Mar-22 22:29N 47°37' W 122°22'0 0.0
2015-Mar-22 21:32N 47°37' W 122°22'0 0.0
2015-Mar-22 20:32N 47°37' W 122°22'0 0.0
2015-Mar-22 19:32N 47°37' W 122°22'0 0.0
2015-Mar-22 18:32N 47°37' W 122°22'0 0.0
2015-Mar-22 17:32N 47°37' W 122°22'0 0.0
2015-Mar-22 16:32N 47°37' W 122°22'0 0.0
2015-Mar-22 15:32N 47°37' W 122°22'0 0.0
2015-Mar-22 14:32N 47°37' W 122°22'0 0.0
2015-Mar-22 13:32N 47°37' W 122°22'0 0.0
2015-Mar-22 12:32N 47°37' W 122°22'0 0.0
2015-Mar-22 11:29N 47°37' W 122°22'0 0.0
2015-Mar-22 10:29N 47°37' W 122°22'0 0.0
2015-Mar-22 09:32N 47°37' W 122°22'0 0.0
2015-Mar-22 08:32N 47°37' W 122°22'0 0.0
2015-Mar-22 07:32N 47°37' W 122°22'0 0.0
2015-Mar-22 06:29N 47°37' W 122°22'0 0.0
2015-Mar-22 05:32N 47°37' W 122°22'0 0.0
2015-Mar-22 04:32N 47°37' W 122°22'0 0.0
2015-Mar-22 03:32N 47°37' W 122°22'0 0.0
2015-Mar-22 02:32N 47°37' W 122°22'0 0.0
2015-Mar-22 01:32N 47°37' W 122°22'0 0.0
2015-Mar-22 00:23N 47°37' W 122°22'0 0.0
2015-Mar-21 23:32N 47°37' W 122°22'0 0.0
2015-Mar-21 22:32N 47°37' W 122°22'0 0.0
2015-Mar-21 21:32N 47°37' W 122°22'0 0.0
2015-Mar-21 20:08N 47°37' W 122°22'0 0.0
2015-Mar-21 19:32N 47°37' W 122°22'0 0.0
2015-Mar-21 18:29N 47°37' W 122°22'0 0.0
2015-Mar-21 17:32N 47°37' W 122°22'0 0.0
2015-Mar-21 16:32N 47°37' W 122°22'0 0.0
2015-Mar-21 15:32N 47°37' W 122°22'0 0.0
2015-Mar-21 14:32N 47°37' W 122°22'0 0.0
2015-Mar-21 13:32N 47°37' W 122°22'0 0.0
2015-Mar-21 12:32N 47°37' W 122°22'0 0.0
2015-Mar-21 11:34N 47°37' W 122°22'0 0.0
2015-Mar-21 10:33N 47°37' W 122°22'0 0.0
2015-Mar-21 09:34N 47°37' W 122°22'0 0.0
2015-Mar-21 08:34N 47°37' W 122°22'0 0.0
2015-Mar-21 07:33N 47°37' W 122°22'0 0.0
2015-Mar-21 06:33N 47°37' W 122°22'0 0.0
2015-Mar-21 05:34N 47°37' W 122°22'0 0.0
2015-Mar-21 04:33N 47°37' W 122°22'0 0.0
2015-Mar-21 03:34N 47°37' W 122°22'0 0.0
2015-Mar-21 02:34N 47°37' W 122°22'0 0.0
2015-Mar-21 01:33N 47°37' W 122°22'0 0.0
2015-Mar-21 00:33N 47°37' W 122°22'0 0.2
2015-Mar-20 23:33N 47°37' W 122°22'2 1.6
2015-Mar-20 22:31N 47°38' W 122°24'0 0.0
2015-Mar-20 21:31N 47°38' W 122°24'0 0.1
2015-Mar-20 20:31N 47°38' W 122°24'0 0.0
2015-Mar-20 19:28N 47°38' W 122°24'0 0.1
2015-Mar-20 18:31N 47°38' W 122°24'0 0.1
2015-Mar-20 17:31N 47°38' W 122°24'0 0.0
2015-Mar-20 16:31N 47°38' W 122°24'0 0.1
2015-Mar-20 15:31N 47°38' W 122°24'0 0.0
2015-Mar-20 14:28N 47°38' W 122°24'0 0.0
2015-Mar-20 13:31N 47°38' W 122°24'0 0.0
2015-Mar-20 12:31N 47°38' W 122°24'0 0.0
2015-Mar-20 11:31N 47°38' W 122°24'0 0.0
2015-Mar-20 10:31N 47°38' W 122°24'0 0.1
2015-Mar-20 09:31N 47°38' W 122°24'0 0.2
2015-Mar-20 08:33N 47°38' W 122°24'4 4.3
2015-Mar-20 07:34N 47°41' W 122°28'1211.8
2015-Mar-20 06:34N 47°53' W 122°29'1110.3
2015-Mar-20 05:32N 48°02' W 122°39'9 8.7
2015-Mar-20 04:32N 48°09' W 122°45'10 9.9
2015-Mar-20 03:32N 48°12' W 122°59'1110.9
2015-Mar-20 02:33N 48°11' W 123°15'10 9.8
2015-Mar-20 01:33N 48°12' W 123°30'1111.1
2015-Mar-20 00:33N 48°13' W 123°47'1111.5
2015-Mar-19 23:33N 48°16' W 124°03'1212.0
2015-Mar-19 22:33N 48°21' W 124°20'1312.9
2015-Mar-19 21:34N 48°26' W 124°37'1110.8
2015-Mar-19 20:33N 48°28' W 124°53'1211.9
2015-Mar-19 19:33N 48°29' W 125°11'1111.5
2015-Mar-19 18:34N 48°28' W 125°28'1211.8
2015-Mar-19 17:33N 48°28' W 125°46'1211.6
2015-Mar-19 16:33N 48°29' W 126°04'1211.7
2015-Mar-19 15:33N 48°29' W 126°21'1411.6
2015-Mar-19 14:22N 48°29' W 126°42'  
Track history (hours):
 
Tides and Currents Weather Stations Pressure Air Temp Water Temp Dewpoint Dewpoint Depression Visibility Wind Speed Wind Dir Waves Ship Positions

Chris

Last reported at 2015-Mar-29 10:30 UTC. Time now 2015-Mar-30 10:41 UTC.
Position N 48°31' W 126°30'.

Length 218 m; draft 13.5 m.

Type: Ship. MMSI: 538004472.

Date/timePositionNaut miles runAvg speedWind from/ knotsBaromVisibWave heightAir tempDewpointWater temp
2015-Mar-29 10:30N 48°31' W 126°30'7 7.3
2015-Mar-29 09:33N 48°31' W 126°20'9 8.2
2015-Mar-29 08:31N 48°31' W 126°07'9 9.0
2015-Mar-29 07:34N 48°31' W 125°54'9 9.3
2015-Mar-29 06:33N 48°31' W 125°40'10 9.8
2015-Mar-29 05:33N 48°31' W 125°25'1010.2
2015-Mar-29 04:32N 48°31' W 125°09'10 9.8
2015-Mar-29 03:32N 48°31' W 124°55'9 9.7
2015-Mar-29 02:33N 48°30' W 124°40'1110.6
2015-Mar-29 01:33N 48°26' W 124°26'1111.2
2015-Mar-29 00:33N 48°21' W 124°10'1211.7
2015-Mar-28 23:33N 48°17' W 123°54'1212.0
2015-Mar-28 22:33N 48°15' W 123°36'1110.9
2015-Mar-28 21:33N 48°09' W 123°23'10 9.8
2015-Mar-28 20:33N 48°12' W 123°09'1110.7
2015-Mar-28 19:32N 48°12' W 122°52'1111.0
2015-Mar-28 18:33N 48°06' W 122°39'1111.1
2015-Mar-28 17:33N 47°56' W 122°31'1111.2
2015-Mar-28 16:33N 47°46' W 122°26'8 8.5
2015-Mar-28 15:33N 47°37' W 122°23'0 0.2
2015-Mar-28 14:29N 47°37' W 122°22'0 0.0
2015-Mar-28 13:29N 47°37' W 122°22'0 0.0
2015-Mar-28 12:29N 47°37' W 122°22'0 0.0
2015-Mar-28 11:29N 47°37' W 122°22'0 0.0
2015-Mar-28 10:29N 47°37' W 122°22'0 0.0
2015-Mar-28 09:29N 47°37' W 122°22'0 0.0
2015-Mar-28 08:32N 47°37' W 122°22'0 0.0
2015-Mar-28 07:32N 47°37' W 122°22'0 0.0
2015-Mar-28 06:23N 47°37' W 122°22'0 0.0
2015-Mar-28 05:32N 47°37' W 122°22'0 0.0
2015-Mar-28 04:20N 47°37' W 122°22'0 0.0
2015-Mar-28 03:32N 47°37' W 122°22'0 0.0
2015-Mar-28 02:32N 47°37' W 122°22'0 0.0
2015-Mar-28 01:29N 47°37' W 122°22'0 0.0
2015-Mar-28 00:29N 47°37' W 122°22'0 0.0
2015-Mar-27 23:29N 47°37' W 122°22'0 0.0
2015-Mar-27 22:26N 47°37' W 122°22'0 0.0
2015-Mar-27 21:32N 47°37' W 122°22'0 0.0
2015-Mar-27 20:32N 47°37' W 122°22'0 0.0
2015-Mar-27 19:32N 47°37' W 122°22'0 0.0
2015-Mar-27 18:32N 47°37' W 122°22'0 0.0
2015-Mar-27 17:29N 47°37' W 122°22'0 0.0
2015-Mar-27 16:29N 47°37' W 122°22'0 0.0
2015-Mar-27 15:29N 47°37' W 122°22'0 0.0
2015-Mar-27 14:33N 47°37' W 122°22'0 0.4
2015-Mar-27 13:33N 47°37' W 122°22'1 0.6
2015-Mar-27 12:33N 47°37' W 122°23'0 0.1
2015-Mar-27 11:33N 47°37' W 122°23'0 0.1
2015-Mar-27 10:33N 47°37' W 122°23'0 0.0
2015-Mar-27 09:33N 47°37' W 122°23'0 0.0
2015-Mar-27 08:33N 47°37' W 122°23'0 0.1
2015-Mar-27 07:24N 47°37' W 122°23'0 0.1
2015-Mar-27 06:21N 47°37' W 122°23'0 0.0
2015-Mar-27 05:30N 47°37' W 122°23'0 0.0
2015-Mar-27 04:33N 47°37' W 122°23'0 0.0
2015-Mar-27 03:33N 47°37' W 122°23'0 0.0
2015-Mar-27 02:33N 47°37' W 122°23'0 0.2
2015-Mar-27 01:33N 47°37' W 122°23'0 0.1
2015-Mar-27 00:33N 47°37' W 122°23'0 0.2
2015-Mar-26 23:30N 47°37' W 122°23'0 0.1
2015-Mar-26 22:33N 47°37' W 122°23'0 0.0
2015-Mar-26 21:33N 47°37' W 122°23'0 0.1
2015-Mar-26 20:33N 47°37' W 122°23'0 0.0
2015-Mar-26 19:33N 47°37' W 122°23'0 0.0
2015-Mar-26 18:21N 47°37' W 122°23'0 0.0
2015-Mar-26 17:30N 47°37' W 122°23'0 0.0
2015-Mar-26 16:33N 47°37' W 122°23'0 0.0
2015-Mar-26 15:33N 47°37' W 122°23'0 0.0
2015-Mar-26 14:33N 47°37' W 122°23'0 0.1
2015-Mar-26 13:33N 47°37' W 122°23'0 0.0
2015-Mar-26 12:33N 47°37' W 122°23'0 0.0
2015-Mar-26 11:30N 47°37' W 122°23'0 0.0
2015-Mar-26 10:33N 47°37' W 122°23'0 0.0
2015-Mar-26 09:33N 47°37' W 122°23'0 0.0
2015-Mar-26 08:33N 47°37' W 122°23'0 0.0
2015-Mar-26 07:30N 47°37' W 122°23'0 0.0
2015-Mar-26 06:33N 47°37' W 122°23'0 0.0
2015-Mar-26 05:33N 47°37' W 122°23'0 0.0
2015-Mar-26 04:30N 47°37' W 122°23'0 0.0
2015-Mar-26 03:33N 47°37' W 122°23'0 0.0
2015-Mar-26 02:30N 47°37' W 122°23'0 0.0
2015-Mar-26 01:30N 47°37' W 122°23'0 0.0
2015-Mar-26 00:27N 47°37' W 122°23'0 0.0
2015-Mar-25 23:33N 47°37' W 122°23'0 0.0
2015-Mar-25 22:30N 47°37' W 122°23'0 0.0
2015-Mar-25 21:30N 47°37' W 122°23'0 0.0
2015-Mar-25 20:33N 47°37' W 122°23'0 0.0
2015-Mar-25 19:33N 47°37' W 122°23'0 0.0
2015-Mar-25 18:33N 47°37' W 122°23'0 0.1
2015-Mar-25 17:33N 47°37' W 122°23'0 0.0
2015-Mar-25 16:33N 47°37' W 122°23'0 0.0
2015-Mar-25 15:33N 47°37' W 122°23'0 0.0
2015-Mar-25 14:24N 47°37' W 122°23'0 0.1
2015-Mar-25 13:33N 47°37' W 122°23'0 0.0
2015-Mar-25 12:33N 47°37' W 122°23'0 0.0
2015-Mar-25 11:30N 47°37' W 122°23'0 0.1
2015-Mar-25 10:33N 47°37' W 122°23'0 0.1
2015-Mar-25 09:33N 47°37' W 122°23'0 0.0
2015-Mar-25 08:33N 47°37' W 122°23'0 0.0
2015-Mar-25 07:30N 47°37' W 122°23'0 0.0
2015-Mar-25 06:33N 47°37' W 122°23'0 0.0
2015-Mar-25 05:33N 47°37' W 122°23'0 0.1
2015-Mar-25 04:33N 47°37' W 122°23'0 0.0
2015-Mar-25 03:33N 47°37' W 122°23'0 0.0
2015-Mar-25 02:33N 47°37' W 122°23'0 0.0
2015-Mar-25 01:33N 47°37' W 122°23'0 0.2
2015-Mar-25 00:33N 47°37' W 122°23'0 0.2
2015-Mar-24 23:33N 47°37' W 122°23'0 0.2
2015-Mar-24 22:33N 47°37' W 122°23'0 0.1
2015-Mar-24 21:33N 47°37' W 122°23'0 0.1
2015-Mar-24 20:27N 47°37' W 122°23'0 0.1
2015-Mar-24 19:33N 47°37' W 122°23'0 0.0
2015-Mar-24 18:33N 47°37' W 122°23'0 0.0
2015-Mar-24 17:33N 47°37' W 122°23'0 0.0
2015-Mar-24 16:33N 47°37' W 122°23'0 0.0
2015-Mar-24 15:30N 47°37' W 122°23'0 0.1
2015-Mar-24 14:33N 47°37' W 122°23'0 0.1
2015-Mar-24 13:33N 47°37' W 122°23'0 0.0
2015-Mar-24 12:33N 47°37' W 122°23'0 0.0
2015-Mar-24 11:27N 47°37' W 122°23'0 0.1
2015-Mar-24 10:33N 47°37' W 122°23'0 0.0
2015-Mar-24 09:30N 47°37' W 122°23'0 0.1
2015-Mar-24 08:33N 47°37' W 122°23'0 0.0
2015-Mar-24 07:33N 47°37' W 122°23'0 0.0
2015-Mar-24 06:33N 47°37' W 122°23'0 0.0
2015-Mar-24 05:33N 47°37' W 122°23'0 0.0
2015-Mar-24 04:33N 47°37' W 122°23'0 0.1
2015-Mar-24 03:33N 47°37' W 122°23'0 0.0
2015-Mar-24 02:30N 47°37' W 122°23'0 0.3
2015-Mar-24 01:33N 47°37' W 122°23'1 0.5
2015-Mar-24 00:29N 47°37' W 122°22'0 0.0
2015-Mar-23 23:32N 47°37' W 122°22'0 0.0
2015-Mar-23 22:29N 47°37' W 122°22'0 0.0
2015-Mar-23 21:32N 47°37' W 122°22'0 0.0
2015-Mar-23 20:32N 47°37' W 122°22'0 0.0
2015-Mar-23 19:32N 47°37' W 122°22'0 0.0
2015-Mar-23 18:32N 47°37' W 122°22'0 0.0
2015-Mar-23 17:32N 47°37' W 122°22'0 0.0
2015-Mar-23 16:32N 47°37' W 122°22'0 0.0
2015-Mar-23 15:32N 47°37' W 122°22'0 0.0
2015-Mar-23 14:32N 47°37' W 122°22'0 0.0
2015-Mar-23 13:32N 47°37' W 122°22'0 0.0
2015-Mar-23 12:32N 47°37' W 122°22'0 0.0
2015-Mar-23 11:32N 47°37' W 122°22'0 0.0
2015-Mar-23 10:32N 47°37' W 122°22'0 0.0
2015-Mar-23 09:32N 47°37' W 122°22'0 0.0
2015-Mar-23 08:32N 47°37' W 122°22'0 0.0
2015-Mar-23 07:32N 47°37' W 122°22'0 0.0
2015-Mar-23 06:32N 47°37' W 122°22'0 0.0
2015-Mar-23 05:32N 47°37' W 122°22'0 0.0
2015-Mar-23 04:32N 47°37' W 122°22'0 0.0
2015-Mar-23 03:32N 47°37' W 122°22'0 0.0
2015-Mar-23 02:32N 47°37' W 122°22'0 0.0
2015-Mar-23 01:32N 47°37' W 122°22'0 0.0
2015-Mar-23 00:32N 47°37' W 122°22'0 0.0
2015-Mar-22 23:29N 47°37' W 122°22'0 0.0
2015-Mar-22 22:29N 47°37' W 122°22'0 0.0
2015-Mar-22 21:32N 47°37' W 122°22'0 0.0
2015-Mar-22 20:32N 47°37' W 122°22'0 0.0
2015-Mar-22 19:32N 47°37' W 122°22'0 0.0
2015-Mar-22 18:32N 47°37' W 122°22'0 0.0
2015-Mar-22 17:32N 47°37' W 122°22'0 0.0
2015-Mar-22 16:32N 47°37' W 122°22'0 0.0
2015-Mar-22 15:32N 47°37' W 122°22'0 0.0
2015-Mar-22 14:32N 47°37' W 122°22'0 0.0
2015-Mar-22 13:32N 47°37' W 122°22'0 0.0
2015-Mar-22 12:32N 47°37' W 122°22'0 0.0
2015-Mar-22 11:29N 47°37' W 122°22'0 0.0
2015-Mar-22 10:29N 47°37' W 122°22'0 0.0
2015-Mar-22 09:32N 47°37' W 122°22'0 0.0
2015-Mar-22 08:32N 47°37' W 122°22'0 0.0
2015-Mar-22 07:32N 47°37' W 122°22'0 0.0
2015-Mar-22 06:29N 47°37' W 122°22'0 0.0
2015-Mar-22 05:32N 47°37' W 122°22'0 0.0
2015-Mar-22 04:32N 47°37' W 122°22'0 0.0
2015-Mar-22 03:32N 47°37' W 122°22'0 0.0
2015-Mar-22 02:32N 47°37' W 122°22'0 0.0
2015-Mar-22 01:32N 47°37' W 122°22'0 0.0
2015-Mar-22 00:23N 47°37' W 122°22'0 0.0
2015-Mar-21 23:32N 47°37' W 122°22'0 0.0
2015-Mar-21 22:32N 47°37' W 122°22'0 0.0
2015-Mar-21 21:32N 47°37' W 122°22'0 0.0
2015-Mar-21 20:08N 47°37' W 122°22'0 0.0
2015-Mar-21 19:32N 47°37' W 122°22'0 0.0
2015-Mar-21 18:29N 47°37' W 122°22'0 0.0
2015-Mar-21 17:32N 47°37' W 122°22'0 0.0
2015-Mar-21 16:32N 47°37' W 122°22'0 0.0
2015-Mar-21 15:32N 47°37' W 122°22'0 0.0
2015-Mar-21 14:32N 47°37' W 122°22'0 0.0
2015-Mar-21 13:32N 47°37' W 122°22'0 0.0
2015-Mar-21 12:32N 47°37' W 122°22'0 0.0
2015-Mar-21 11:34N 47°37' W 122°22'0 0.0
2015-Mar-21 10:33N 47°37' W 122°22'0 0.0
2015-Mar-21 09:34N 47°37' W 122°22'0 0.0
2015-Mar-21 08:34N 47°37' W 122°22'0 0.0
2015-Mar-21 07:33N 47°37' W 122°22'0 0.0
2015-Mar-21 06:33N 47°37' W 122°22'0 0.0
2015-Mar-21 05:34N 47°37' W 122°22'0 0.0
2015-Mar-21 04:33N 47°37' W 122°22'0 0.0
2015-Mar-21 03:34N 47°37' W 122°22'0 0.0
2015-Mar-21 02:34N 47°37' W 122°22'0 0.0
2015-Mar-21 01:33N 47°37' W 122°22'0 0.0
2015-Mar-21 00:33N 47°37' W 122°22'0 0.2
2015-Mar-20 23:33N 47°37' W 122°22'2 1.6
2015-Mar-20 22:31N 47°38' W 122°24'0 0.0
2015-Mar-20 21:31N 47°38' W 122°24'0 0.1
2015-Mar-20 20:31N 47°38' W 122°24'0 0.0
2015-Mar-20 19:28N 47°38' W 122°24'0 0.1
2015-Mar-20 18:31N 47°38' W 122°24'0 0.1
2015-Mar-20 17:31N 47°38' W 122°24'0 0.0
2015-Mar-20 16:31N 47°38' W 122°24'0 0.1
2015-Mar-20 15:31N 47°38' W 122°24'0 0.0
2015-Mar-20 14:28N 47°38' W 122°24'0 0.0
2015-Mar-20 13:31N 47°38' W 122°24'0 0.0
2015-Mar-20 12:31N 47°38' W 122°24'0 0.0
2015-Mar-20 11:31N 47°38' W 122°24'0 0.0
2015-Mar-20 10:31N 47°38' W 122°24'0 0.1
2015-Mar-20 09:31N 47°38' W 122°24'0 0.2
2015-Mar-20 08:33N 47°38' W 122°24'4 4.3
2015-Mar-20 07:34N 47°41' W 122°28'1211.8
2015-Mar-20 06:34N 47°53' W 122°29'1110.3
2015-Mar-20 05:32N 48°02' W 122°39'9 8.7
2015-Mar-20 04:32N 48°09' W 122°45'10 9.9
2015-Mar-20 03:32N 48°12' W 122°59'1110.9
2015-Mar-20 02:33N 48°11' W 123°15'10 9.8
2015-Mar-20 01:33N 48°12' W 123°30'1111.1
2015-Mar-20 00:33N 48°13' W 123°47'1111.5
2015-Mar-19 23:33N 48°16' W 124°03'1212.0
2015-Mar-19 22:33N 48°21' W 124°20'1312.9
2015-Mar-19 21:34N 48°26' W 124°37'1110.8
2015-Mar-19 20:33N 48°28' W 124°53'1211.9
2015-Mar-19 19:33N 48°29' W 125°11'1111.5
2015-Mar-19 18:34N 48°28' W 125°28'1211.8
2015-Mar-19 17:33N 48°28' W 125°46'1211.6
2015-Mar-19 16:33N 48°29' W 126°04'1211.7
2015-Mar-19 15:33N 48°29' W 126°21'1411.6
2015-Mar-19 14:22N 48°29' W 126°42'  

Dump ship's entire track history